Time;durP1;ratioP1;P1;durP2;ratioP2;P2;SDS_P1;SDS_P2;PMS_P1;PMS_P2;Temp;Humidity;BMP_temperature;BMP_pressure;BME280_temperature;BME280_humidity;BME280_pressure;Samples;Min_cycle;Max_cycle;Signal;HPM_P1;HPM_P2
2022/09/01 00:01:42;;;;;;;7.30;6.20;;;;;;;23.68;47.88;99942.72;4123337;28;20307;-63
2022/09/01 00:03:47;;;;;;;7.00;6.30;;;;;;;23.56;48.03;99943.56;4122175;28;22603;-64
2022/09/01 00:05:55;;;;;;;7.57;6.40;;;;;;;23.95;47.19;99937.53;4123887;28;20674;-64
2022/09/01 00:07:57;;;;;;;8.70;6.03;;;;;;;23.05;48.80;99942.47;4123409;28;20244;-64
2022/09/01 00:09:59;;;;;;;11.03;5.80;;;;;;;23.23;48.59;99930.66;4125269;28;20284;-63
2022/09/01 00:12:03;;;;;;;7.07;6.27;;;;;;;22.69;49.55;99922.63;4124794;28;20238;-63
2022/09/01 00:14:07;;;;;;;6.37;5.77;;;;;;;23.70;47.79;99924.28;4127372;28;20245;-63
2022/09/01 00:16:29;;;;;;;8.27;6.60;;;;;;;23.41;48.22;99932.38;4118922;28;20262;-63
2022/09/01 00:18:31;;;;;;;6.87;5.97;;;;;;;22.76;49.39;99931.50;4128118;28;20839;-64
2022/09/01 00:20:33;;;;;;;7.57;6.27;;;;;;;23.62;47.10;99941.81;4128021;28;20230;-64
2022/09/01 00:22:35;;;;;;;6.70;6.07;;;;;;;23.27;48.06;99948.09;4126940;28;20238;-62
2022/09/01 00:24:37;;;;;;;8.03;6.10;;;;;;;23.41;48.17;99934.28;4122999;28;20295;-63
2022/09/01 00:26:38;;;;;;;5.90;5.40;;;;;;;23.64;47.55;99933.44;4122391;28;20747;-64
2022/09/01 00:28:40;;;;;;;8.43;6.30;;;;;;;23.49;47.83;99947.47;4122482;28;20238;-63
2022/09/01 00:30:42;;;;;;;6.60;6.00;;;;;;;23.52;47.52;99945.09;4124328;28;20319;-64
2022/09/01 00:32:45;;;;;;;7.53;6.17;;;;;;;24.20;46.39;99930.94;4127715;28;20283;-64
2022/09/01 00:34:47;;;;;;;9.27;5.60;;;;;;;23.80;47.08;99942.69;4122116;28;20678;-64
2022/09/01 00:36:49;;;;;;;12.77;5.53;;;;;;;23.27;48.04;99944.59;4126486;28;20245;-63
2022/09/01 00:38:51;;;;;;;6.37;5.37;;;;;;;23.78;46.95;99934.78;4126037;28;20242;-64
2022/09/01 00:40:53;;;;;;;6.20;5.60;;;;;;;23.78;47.06;99933.97;4128369;28;20229;-64
2022/09/01 00:42:55;;;;;;;6.23;5.30;;;;;;;23.57;47.76;99939.81;4125619;28;20698;-64
2022/09/01 00:44:56;;;;;;;6.53;5.27;;;;;;;23.73;47.23;99934.69;4124589;28;20234;-64
2022/09/01 00:46:58;;;;;;;7.97;5.60;;;;;;;23.10;48.15;99952.63;4124005;28;20273;-63
2022/09/01 00:49:06;;;;;;;6.90;5.57;;;;;;;23.28;47.86;99935.38;4121898;28;20283;-64
2022/09/01 00:51:09;;;;;;;5.63;4.87;;;;;;;22.94;48.57;99936.00;4125970;28;20378;-62
2022/09/01 00:53:12;;;;;;;7.30;5.20;;;;;;;23.66;47.66;99928.56;4124787;28;20246;-64
2022/09/01 00:55:23;;;;;;;7.27;5.33;;;;;;;23.22;48.51;99922.78;4121639;28;20833;-63
2022/09/01 00:57:26;;;;;;;5.90;5.10;;;;;;;23.44;47.58;99925.66;4120426;28;20611;-61
2022/09/01 00:59:28;;;;;;;7.63;5.47;;;;;;;23.44;47.74;99929.19;4125978;28;20241;-64
2022/09/01 01:01:30;;;;;;;7.20;5.37;;;;;;;23.38;48.05;99936.41;4121915;28;20238;-64
2022/09/01 01:03:31;;;;;;;6.00;5.23;;;;;;;22.83;48.72;99937.63;4124317;28;20230;-63
2022/09/01 01:05:39;;;;;;;6.20;5.00;;;;;;;23.53;48.02;99921.50;4119517;28;20656;-64
2022/09/01 01:07:43;;;;;;;5.90;5.10;;;;;;;22.73;49.11;99926.53;4123785;28;21000;-64
2022/09/01 01:09:49;;;;;;;8.93;5.53;;;;;;;22.92;48.60;99926.41;4125468;28;20280;-63
2022/09/01 01:11:52;;;;;;;8.43;5.53;;;;;;;22.86;48.78;99922.78;4125899;28;20261;-63
2022/09/01 01:14:10;;;;;;;7.37;5.90;;;;;;;22.87;49.11;99912.75;4124952;28;20238;-64
2022/09/01 01:16:14;;;;;;;8.23;5.70;;;;;;;22.84;48.73;99928.44;4119981;28;20229;-62
2022/09/01 01:18:18;;;;;;;6.73;5.63;;;;;;;23.12;48.46;99921.47;4125242;28;20229;-64
2022/09/01 01:23:04;;;;;;;10.73;5.80;;;;;;;22.09;49.53;99926.31;4122324;28;20297;-61
2022/09/01 01:25:06;;;;;;;8.53;5.10;;;;;;;22.79;49.07;99906.63;4122727;28;20281;-64
2022/09/01 01:27:08;;;;;;;8.93;5.63;;;;;;;22.41;49.32;99920.63;4124503;28;20230;-64
2022/09/01 01:29:10;;;;;;;9.33;5.83;;;;;;;22.51;49.34;99923.59;4119211;28;20238;-63
2022/09/01 01:31:17;;;;;;;6.33;5.40;;;;;;;22.46;49.37;99929.69;4128189;28;20230;-63
2022/09/01 01:33:24;;;;;;;7.73;5.60;;;;;;;22.74;48.83;99919.22;4115698;28;20233;-64
2022/09/01 01:35:26;;;;;;;6.93;5.97;;;;;;;22.61;48.68;99937.38;4120840;28;20242;-63
2022/09/01 01:37:28;;;;;;;6.10;5.50;;;;;;;22.92;48.55;99931.84;4114553;28;20230;-64
2022/09/01 01:39:31;;;;;;;8.80;5.73;;;;;;;22.71;48.74;99930.53;4107195;28;20234;-64
2022/09/01 01:41:34;;;;;;;8.27;5.77;;;;;;;22.87;48.60;99923.59;4128677;28;20279;-62
2022/09/01 01:43:37;;;;;;;6.53;5.80;;;;;;;23.11;48.11;99927.94;4122865;28;20619;-63
2022/09/01 01:45:39;;;;;;;7.17;6.03;;;;;;;22.69;48.87;99932.66;4122423;28;20239;-63
2022/09/01 01:47:41;;;;;;;7.57;5.23;;;;;;;22.55;49.39;99930.19;4119489;28;20316;-63
2022/09/01 01:49:42;;;;;;;8.07;6.10;;;;;;;22.53;49.23;99939.63;4122854;28;20226;-63
2022/09/01 01:51:46;;;;;;;7.23;5.77;;;;;;;22.64;48.89;99926.06;4125984;28;20233;-64
2022/09/01 01:53:51;;;;;;;9.23;6.17;;;;;;;22.51;49.26;99936.28;4112091;28;20230;-63
2022/09/01 01:55:54;;;;;;;6.27;5.60;;;;;;;22.47;49.21;99930.50;4121838;28;20313;-64
2022/09/01 01:57:58;;;;;;;7.40;6.50;;;;;;;22.13;50.12;99929.38;4119898;28;20319;-64
2022/09/01 02:00:00;;;;;;;6.97;5.80;;;;;;;22.49;49.23;99933.00;4124996;28;20354;-63
2022/09/01 02:02:07;;;;;;;7.73;6.10;;;;;;;22.62;49.02;99917.38;4123819;28;20229;-65
2022/09/01 02:04:10;;;;;;;8.43;5.93;;;;;;;22.66;48.96;99920.44;4124382;28;20309;-62
2022/09/01 02:06:12;;;;;;;9.40;6.43;;;;;;;22.89;48.51;99919.56;4107615;28;20301;-62
2022/09/01 02:08:14;;;;;;;8.80;6.33;;;;;;;22.62;49.07;99913.81;4108773;28;20246;-62
2022/09/01 02:10:16;;;;;;;8.83;6.17;;;;;;;22.50;48.94;99930.06;4122787;28;20512;-62
2022/09/01 02:12:18;;;;;;;8.20;5.73;;;;;;;21.27;51.29;99935.66;4124583;28;20669;-62
2022/09/01 02:14:20;;;;;;;7.13;5.93;;;;;;;22.44;49.64;99910.16;4124686;28;20340;-63
2022/09/01 02:16:24;;;;;;;7.17;6.30;;;;;;;22.57;49.11;99910.97;4125705;28;20229;-63
2022/09/01 02:18:33;;;;;;;7.30;5.60;;;;;;;22.93;48.78;99907.25;4123227;28;20226;-63
2022/09/01 02:20:35;;;;;;;7.03;6.20;;;;;;;22.64;48.92;99908.97;4122574;28;20233;-62
2022/09/01 02:22:38;;;;;;;7.27;6.00;;;;;;;22.05;50.22;99916.97;4125774;28;20250;-63
2022/09/01 02:24:50;;;;;;;9.47;6.13;;;;;;;22.08;50.22;99916.50;4124839;28;20246;-63
2022/09/01 02:26:51;;;;;;;7.03;5.43;;;;;;;22.32;49.72;99911.19;4116737;28;20330;-62
2022/09/01 02:28:53;;;;;;;6.63;5.80;;;;;;;22.65;49.64;99899.78;4125561;28;20233;-63
2022/09/01 02:30:58;;;;;;;7.93;6.47;;;;;;;21.89;50.48;99913.06;4123479;28;20244;-64
2022/09/01 02:33:00;;;;;;;6.93;6.07;;;;;;;21.60;50.93;99914.69;4121558;28;20245;-62
2022/09/01 02:35:06;;;;;;;7.83;5.87;;;;;;;22.00;50.49;99900.59;4120544;28;20238;-64
2022/09/01 02:37:07;;;;;;;7.13;5.93;;;;;;;21.51;51.51;99906.88;4124171;28;20272;-64
2022/09/01 02:39:10;;;;;;;8.73;5.63;;;;;;;21.94;50.70;99888.00;4126464;28;20234;-64
2022/09/01 02:41:14;;;;;;;9.10;6.10;;;;;;;21.72;51.02;99902.88;4125972;28;20652;-63
2022/09/01 02:43:19;;;;;;;7.70;5.93;;;;;;;21.13;51.56;99926.03;4119797;28;20241;-63
2022/09/01 02:45:22;;;;;;;7.40;6.03;;;;;;;22.28;49.73;99910.78;4123254;28;20284;-63
2022/09/01 02:47:26;;;;;;;6.93;6.27;;;;;;;22.14;50.14;99903.94;4124050;28;20710;-64
2022/09/01 02:49:30;;;;;;;6.97;5.70;;;;;;;22.25;49.89;99908.53;4123304;28;20328;-62
2022/09/01 02:51:32;;;;;;;7.23;6.33;;;;;;;22.54;49.47;99908.72;4120835;28;20285;-62
2022/09/01 02:53:34;;;;;;;7.93;6.67;;;;;;;22.48;49.50;99920.53;4119077;28;20284;-64
2022/09/01 02:55:39;;;;;;;7.47;5.90;;;;;;;21.73;50.51;99920.75;4124061;28;20233;-64
2022/09/01 02:57:41;;;;;;;6.63;5.90;;;;;;;21.43;51.62;99911.78;4122464;28;20692;-64
2022/09/01 02:59:43;;;;;;;10.47;6.50;;;;;;;21.82;50.69;99913.16;4122819;28;20234;-64
2022/09/01 03:01:45;;;;;;;8.33;6.27;;;;;;;21.91;50.27;99921.75;4118651;28;20234;-63
2022/09/01 03:03:49;;;;;;;7.47;6.10;;;;;;;22.38;50.01;99908.38;4121278;28;20304;-64
2022/09/01 03:05:55;;;;;;;8.27;6.53;;;;;;;21.84;51.15;99899.38;4119617;28;20237;-64
2022/09/01 03:08:01;;;;;;;7.97;6.20;;;;;;;21.74;52.02;99894.53;4119599;28;20226;-63
2022/09/01 03:10:08;;;;;;;8.07;6.73;;;;;;;21.72;51.23;99910.97;4126527;28;20648;-62
2022/09/01 03:12:10;;;;;;;7.07;6.37;;;;;;;21.82;50.96;99896.91;4121286;28;20288;-63
2022/09/01 03:14:12;;;;;;;8.77;6.57;;;;;;;22.41;49.94;99893.53;4125316;28;20722;-64
2022/09/01 03:16:14;;;;;;;7.17;6.47;;;;;;;22.07;50.07;99907.56;4120048;28;20867;-62
2022/09/01 03:18:19;;;;;;;9.37;6.80;;;;;;;21.61;51.07;99917.13;4125680;28;20226;-63
2022/09/01 03:20:21;;;;;;;7.37;6.60;;;;;;;20.59;53.11;99915.72;4121160;28;20229;-61
2022/09/01 03:22:23;;;;;;;10.03;6.97;;;;;;;21.33;51.55;99907.72;4125645;28;20234;-64
2022/09/01 03:24:25;;;;;;;8.30;6.70;;;;;;;21.70;51.11;99901.47;4121363;28;20225;-63
2022/09/01 03:26:26;;;;;;;8.23;6.70;;;;;;;21.11;52.20;99914.63;4117247;28;20231;-63
2022/09/01 03:28:28;;;;;;;7.53;6.73;;;;;;;21.29;52.18;99903.81;4112870;28;20230;-63
2022/09/01 03:30:34;;;;;;;7.10;6.40;;;;;;;21.69;50.96;99916.03;4122123;28;20238;-64
2022/09/01 03:32:35;;;;;;;6.93;6.23;;;;;;;22.34;49.91;99899.06;4126721;28;20715;-66
2022/09/01 03:34:38;;;;;;;7.93;6.63;;;;;;;21.49;51.85;99910.84;4126317;28;20765;-65
2022/09/01 03:36:48;;;;;;;8.57;7.03;;;;;;;21.32;51.91;99922.25;4121199;28;20323;-63
2022/09/01 03:38:51;;;;;;;9.30;6.90;;;;;;;21.30;52.05;99910.84;4119827;28;20237;-63
2022/09/01 03:41:00;;;;;;;7.83;7.03;;;;;;;21.04;53.18;99903.88;4123619;28;20230;-62
2022/09/01 03:43:05;;;;;;;16.83;6.97;;;;;;;20.96;52.19;99928.50;4120447;28;20229;-63
2022/09/01 03:45:07;;;;;;;7.77;6.97;;;;;;;21.21;52.18;99919.50;4119298;28;20234;-63
2022/09/01 03:47:10;;;;;;;10.90;6.93;;;;;;;21.36;52.38;99911.84;4122726;28;20695;-63
2022/09/01 03:49:16;;;;;;;9.50;7.43;;;;;;;21.65;51.52;99906.72;4126809;28;20233;-63
2022/09/01 03:51:21;;;;;;;8.90;7.43;;;;;;;22.31;49.96;99904.13;4121114;28;20592;-64
2022/09/01 03:53:26;;;;;;;8.50;6.57;;;;;;;21.53;51.77;99920.16;4122538;28;20234;-63
2022/09/01 03:55:31;;;;;;;7.60;6.90;;;;;;;21.10;52.60;99915.66;4126968;28;20260;-63
2022/09/01 03:57:33;;;;;;;7.47;6.77;;;;;;;22.04;50.91;99902.63;4121409;28;20242;-63
2022/09/01 03:59:37;;;;;;;7.67;6.90;;;;;;;21.70;51.28;99912.28;4126519;28;20234;-63
2022/09/01 04:01:42;;;;;;;9.30;7.07;;;;;;;21.91;50.62;99919.88;4122592;28;20237;-62
2022/09/01 04:03:46;;;;;;;7.27;6.53;;;;;;;22.21;49.87;99923.63;4125933;28;20321;-63
2022/09/01 04:05:50;;;;;;;10.50;7.07;;;;;;;21.95;51.00;99928.38;4126551;28;20666;-63
2022/09/01 04:07:51;;;;;;;7.23;6.53;;;;;;;22.01;50.88;99927.44;4126199;28;20237;-63
2022/09/01 04:09:53;;;;;;;7.93;6.43;;;;;;;21.92;50.85;99915.31;4127286;28;20284;-63
2022/09/01 04:11:55;;;;;;;9.00;7.13;;;;;;;21.61;51.51;99922.53;4128630;28;20225;-63
2022/09/01 04:13:57;;;;;;;9.57;7.90;;;;;;;21.63;51.27;99925.06;4111879;28;20691;-63
2022/09/01 04:15:58;;;;;;;11.60;8.10;;;;;;;20.79;53.16;99928.22;4108689;28;20739;-63
2022/09/01 04:18:10;;;;;;;10.67;7.37;;;;;;;20.94;53.25;99919.78;4125766;28;20321;-64
2022/09/01 04:20:14;;;;;;;10.67;8.30;;;;;;;21.32;52.50;99913.34;4121098;28;20240;-64
2022/09/01 04:22:28;;;;;;;9.87;8.07;;;;;;;20.72;53.45;99922.03;4125727;28;20636;-63
2022/09/01 04:24:31;;;;;;;9.50;7.93;;;;;;;21.38;51.92;99908.88;4125490;28;20229;-63
2022/09/01 04:26:33;;;;;;;8.70;7.80;;;;;;;21.18;52.83;99907.25;4126865;28;20681;-63
2022/09/01 04:28:47;;;;;;;8.67;7.77;;;;;;;21.17;52.40;99911.84;4124427;28;20239;-63
2022/09/01 04:30:51;;;;;;;8.37;7.43;;;;;;;21.28;52.46;99907.56;4122562;28;20367;-63
2022/09/01 04:32:54;;;;;;;9.67;7.47;;;;;;;20.84;53.06;99922.13;4121005;28;20300;-63
2022/09/01 04:34:56;;;;;;;8.83;7.80;;;;;;;21.33;52.29;99901.47;4125453;28;20234;-63
2022/09/01 04:36:58;;;;;;;8.47;7.60;;;;;;;21.23;52.28;99920.13;4123642;28;20261;-63
2022/09/01 04:39:07;;;;;;;8.30;7.03;;;;;;;20.90;52.79;99919.38;4126061;28;20773;-63
2022/09/01 04:41:16;;;;;;;8.43;7.60;;;;;;;21.26;52.35;99911.53;4124223;28;20974;-62
2022/09/01 04:43:18;;;;;;;8.87;7.80;;;;;;;21.35;52.31;99908.28;4123675;28;20233;-62
2022/09/01 04:45:26;;;;;;;11.40;8.17;;;;;;;20.94;52.22;99931.41;4126610;28;20233;-62
2022/09/01 04:47:30;;;;;;;9.47;7.77;;;;;;;21.76;51.17;99918.66;4125346;28;20241;-66
2022/09/01 04:49:36;;;;;;;10.53;8.20;;;;;;;21.33;52.25;99917.72;4123193;28;20249;-62
2022/09/01 04:51:41;;;;;;;8.50;7.60;;;;;;;21.43;51.64;99920.69;4126810;28;20234;-62
2022/09/01 04:53:47;;;;;;;8.60;7.70;;;;;;;21.62;51.67;99907.16;4120044;28;20237;-62
2022/09/01 04:55:51;;;;;;;9.43;8.40;;;;;;;21.07;52.53;99921.53;4124172;28;20264;-63
2022/09/01 04:57:53;;;;;;;8.60;7.70;;;;;;;21.52;51.99;99916.63;4124176;28;20239;-61
2022/09/01 05:02:25;;;;;;;10.30;8.27;;;;;;;21.23;53.29;99842.50;4240858;27;20727;-62
2022/09/01 05:04:33;;;;;;;9.43;8.50;;;;;;;21.62;52.20;99861.97;4221503;27;20233;-64
2022/09/01 05:06:38;;;;;;;11.50;9.07;;;;;;;21.57;51.86;99886.19;4200774;28;20750;-61
2022/09/01 05:08:40;;;;;;;10.97;9.10;;;;;;;22.10;51.50;99865.66;4218631;28;20690;-62
2022/09/01 05:10:52;;;;;;;9.07;8.10;;;;;;;21.64;52.02;99876.13;4217500;28;20231;-62
2022/09/01 05:12:53;;;;;;;10.20;8.70;;;;;;;21.64;51.40;99903.19;4215890;28;20294;-63
2022/09/01 05:14:55;;;;;;;9.53;8.47;;;;;;;22.03;51.31;99882.00;4214279;27;20237;-63
2022/09/01 05:16:57;;;;;;;10.80;9.47;;;;;;;22.17;50.49;99904.31;4203285;28;20671;-63
2022/09/01 05:19:00;;;;;;;10.27;8.77;;;;;;;22.39;50.25;99901.91;4207218;28;20461;-62
2022/09/01 05:21:08;;;;;;;9.63;8.73;;;;;;;22.69;50.01;99890.13;4221002;28;20614;-63
2022/09/01 05:23:11;;;;;;;9.57;8.63;;;;;;;22.74;49.38;99906.53;4219573;28;20251;-62
2022/09/01 05:25:13;;;;;;;11.60;8.77;;;;;;;22.92;49.28;99911.00;4218754;28;20283;-61
2022/09/01 05:27:16;;;;;;;10.43;9.33;;;;;;;23.00;49.64;99901.69;4219106;28;20230;-64
2022/09/01 05:29:19;;;;;;;10.17;8.80;;;;;;;22.97;49.26;99904.88;4223559;28;20229;-63
2022/09/01 05:31:23;;;;;;;10.53;9.43;;;;;;;21.98;51.34;99922.47;4219001;28;20218;-61
2022/09/01 05:33:25;;;;;;;9.37;8.47;;;;;;;22.48;50.14;99918.63;4224810;27;20309;-64
2022/09/01 05:35:26;;;;;;;10.97;9.73;;;;;;;22.87;49.89;99894.59;4219036;28;20272;-64
2022/09/01 05:37:36;;;;;;;12.20;9.77;;;;;;;22.49;50.62;99914.03;4220251;28;20229;-63
2022/09/01 05:39:38;;;;;;;9.43;8.43;;;;;;;22.64;50.33;99898.13;4218269;28;20537;-64
2022/09/01 05:41:40;;;;;;;10.57;8.27;;;;;;;22.88;49.89;99906.25;4219594;28;20292;-63
2022/09/01 05:43:47;;;;;;;9.20;8.27;;;;;;;22.51;50.72;99901.91;4219486;28;20234;-64
2022/09/01 05:45:49;;;;;;;11.30;8.63;;;;;;;22.46;50.58;99916.16;4218106;28;20222;-64
2022/09/01 05:48:08;;;;;;;9.70;8.63;;;;;;;22.62;50.35;99916.50;4218885;28;20241;-64
2022/09/01 05:50:10;;;;;;;10.23;9.10;;;;;;;23.12;49.50;99905.19;4219758;28;20226;-64
2022/09/01 05:52:15;;;;;;;10.27;9.27;;;;;;;23.45;48.61;99908.31;4221654;28;20234;-63
2022/09/01 05:54:21;;;;;;;9.57;8.57;;;;;;;22.87;49.24;99931.72;4214876;28;20301;-63
2022/09/01 05:56:27;;;;;;;13.10;9.27;;;;;;;22.94;49.88;99913.47;4217451;28;20230;-63
2022/09/01 05:58:30;;;;;;;10.20;9.13;;;;;;;22.97;49.85;99921.97;4219251;28;20223;-63
2022/09/01 06:00:54;;;;;;;9.70;8.70;;;;;;;23.24;49.53;99917.94;4217797;28;20254;-64
2022/09/01 06:02:56;;;;;;;11.00;9.80;;;;;;;23.33;49.38;99911.91;4219060;28;20279;-62
2022/09/01 06:04:59;;;;;;;10.57;9.07;;;;;;;23.06;49.61;99932.44;4217065;28;20252;-62
2022/09/01 06:07:00;;;;;;;11.20;10.00;;;;;;;22.23;51.42;99929.63;4217638;28;20237;-62
2022/09/01 06:09:09;;;;;;;10.83;9.67;;;;;;;22.08;51.75;99925.47;4216806;28;20246;-64
2022/09/01 06:11:16;;;;;;;11.03;9.93;;;;;;;22.00;52.63;99914.13;4212813;28;20223;-63
2022/09/01 06:13:20;;;;;;;11.83;10.63;;;;;;;22.38;51.82;99913.78;4212237;28;20249;-63
2022/09/01 06:15:29;;;;;;;12.80;11.47;;;;;;;22.53;52.02;99902.50;4203434;28;20327;-65
2022/09/01 06:17:31;;;;;;;11.50;10.10;;;;;;;23.67;49.44;99887.63;4205182;28;20292;-63
2022/09/01 06:19:38;;;;;;;11.77;10.57;;;;;;;23.00;50.31;99923.38;4204879;28;20243;-62
2022/09/01 06:21:41;;;;;;;12.63;11.03;;;;;;;22.94;50.73;99916.19;4203492;28;20356;-63
2022/09/01 06:23:43;;;;;;;12.27;11.00;;;;;;;23.54;49.38;99915.00;4208314;28;20257;-61
2022/09/01 06:25:46;;;;;;;10.73;9.73;;;;;;;23.42;50.39;99919.63;4204400;28;20669;-61
2022/09/01 06:27:48;;;;;;;13.83;10.40;;;;;;;23.08;50.78;99933.88;4205694;28;20235;-63
2022/09/01 06:29:52;;;;;;;12.40;10.77;;;;;;;22.14;52.17;99944.56;4205171;28;20423;-61
2022/09/01 06:31:55;;;;;;;11.90;10.70;;;;;;;22.62;51.16;99936.34;4207704;28;20233;-62
2022/09/01 06:33:58;;;;;;;11.50;10.07;;;;;;;23.26;50.61;99923.94;4205564;28;20230;-61
2022/09/01 06:36:02;;;;;;;11.93;10.73;;;;;;;23.47;50.63;99904.28;4202513;28;20233;-62
2022/09/01 06:38:05;;;;;;;11.80;10.57;;;;;;;23.71;50.01;99904.25;4208567;28;20283;-62
2022/09/01 06:40:15;;;;;;;12.07;10.03;;;;;;;23.83;49.58;99929.44;4206037;28;20252;-62
2022/09/01 06:42:18;;;;;;;10.73;9.73;;;;;;;23.52;49.77;99942.38;4192354;28;20784;-62
2022/09/01 06:44:23;;;;;;;13.57;11.13;;;;;;;23.41;50.46;99939.72;4208047;28;20222;-62
2022/09/01 06:46:26;;;;;;;13.23;10.73;;;;;;;23.37;50.69;99934.75;4203821;28;20762;-62
2022/09/01 06:48:29;;;;;;;12.07;10.30;;;;;;;23.77;49.98;99922.25;4205469;28;20254;-63
2022/09/01 06:50:31;;;;;;;11.80;10.60;;;;;;;23.73;49.88;99930.06;4210269;28;20234;-62
2022/09/01 06:53:00;;;;;;;11.07;10.00;;;;;;;23.08;51.23;99938.44;4200212;28;20314;-62
2022/09/01 06:55:21;;;;;;;12.13;10.63;;;;;;;24.10;49.34;99923.41;4205193;28;20261;-62
2022/09/01 06:57:25;;;;;;;14.10;10.20;;;;;;;23.83;50.41;99945.72;4208232;28;20267;-62
2022/09/01 06:59:49;;;;;;;12.10;10.90;;;;;;;23.67;50.69;99941.06;4200921;28;20231;-62
2022/09/01 07:01:53;;;;;;;11.30;10.20;;;;;;;24.18;49.52;99935.81;4206215;28;20252;-63
2022/09/01 07:04:02;;;;;;;13.77;10.33;;;;;;;23.45;50.99;99947.13;4206657;28;20249;-63
2022/09/01 07:06:06;;;;;;;12.60;10.07;;;;;;;23.91;49.81;99936.38;4204260;28;20237;-62
2022/09/01 07:08:16;;;;;;;11.63;10.17;;;;;;;23.65;50.38;99945.91;4202252;28;20238;-62
2022/09/01 07:10:21;;;;;;;12.43;10.60;;;;;;;23.63;50.53;99951.59;4204036;28;20258;-63
2022/09/01 07:12:23;;;;;;;10.90;9.80;;;;;;;24.62;49.08;99933.25;4207625;28;20238;-61
2022/09/01 07:14:47;;;;;;;10.87;9.77;;;;;;;24.02;49.62;99961.81;4211784;28;20326;-63
2022/09/01 07:17:12;;;;;;;10.73;9.00;;;;;;;23.39;50.89;99962.47;4205742;28;20309;-63
2022/09/01 07:19:31;;;;;;;12.80;10.20;;;;;;;23.51;50.50;99967.88;4207691;28;20250;-62
2022/09/01 07:21:49;;;;;;;11.53;9.87;;;;;;;23.95;49.93;99956.53;4205287;28;20222;-63
2022/09/01 07:24:11;;;;;;;9.93;9.00;;;;;;;23.55;50.36;99973.63;4200095;28;20695;-63
2022/09/01 07:26:18;;;;;;;11.63;9.60;;;;;;;24.36;49.01;99942.88;4204119;28;20230;-63
2022/09/01 07:28:31;;;;;;;11.13;10.03;;;;;;;24.24;48.82;99967.41;4189455;28;20274;-62
2022/09/01 07:30:44;;;;;;;11.07;9.23;;;;;;;24.61;48.50;99967.75;4190628;28;20235;-62
2022/09/01 07:32:49;;;;;;;11.73;10.37;;;;;;;24.17;49.50;99972.19;4184611;28;20606;-61
2022/09/01 07:34:51;;;;;;;11.00;9.90;;;;;;;24.31;49.11;99984.38;4189115;28;20281;-61
2022/09/01 07:36:58;;;;;;;11.47;9.57;;;;;;;24.54;48.68;99963.56;4194319;28;20265;-63
2022/09/01 07:39:20;;;;;;;11.20;9.17;;;;;;;24.31;49.60;99974.34;4202854;28;20266;-62
2022/09/01 07:41:42;;;;;;;11.30;9.53;;;;;;;24.25;49.28;99978.03;4203597;28;20233;-62
2022/09/01 07:44:04;;;;;;;10.60;9.30;;;;;;;25.06;48.06;99963.31;4207996;28;20288;-63
2022/09/01 07:46:06;;;;;;;10.67;9.57;;;;;;;23.55;50.37;99998.06;4206114;28;20842;-63
2022/09/01 07:48:28;;;;;;;11.40;8.80;;;;;;;24.39;49.13;99977.72;4201789;28;20230;-62
2022/09/01 07:50:52;;;;;;;11.00;9.10;;;;;;;24.15;49.87;99982.44;4203612;28;20739;-62
2022/09/01 07:53:21;;;;;;;9.57;8.57;;;;;;;24.80;48.34;99968.38;4206399;28;20668;-63
2022/09/01 07:55:23;;;;;;;10.30;8.60;;;;;;;24.37;49.43;99975.25;4206540;28;20598;-61
2022/09/01 07:57:25;;;;;;;10.40;9.30;;;;;;;24.38;49.38;99976.91;4202096;28;20284;-61
2022/09/01 07:59:28;;;;;;;10.10;9.07;;;;;;;24.45;48.98;99984.91;4203260;28;20227;-63
2022/09/01 08:01:29;;;;;;;10.33;9.10;;;;;;;24.48;48.83;99978.94;4204346;28;20283;-62
2022/09/01 08:03:31;;;;;;;11.33;9.90;;;;;;;24.01;49.75;99987.31;4202844;28;20271;-62
2022/09/01 08:05:33;;;;;;;11.13;8.97;;;;;;;24.44;49.21;99975.91;4206082;28;20292;-61
2022/09/01 08:07:35;;;;;;;12.17;9.07;;;;;;;24.95;48.51;99965.06;4204783;28;20234;-63
2022/09/01 08:09:52;;;;;;;11.50;8.80;;;;;;;24.43;48.75;99987.03;4191276;28;20288;-63
2022/09/01 08:11:56;;;;;;;10.43;9.33;;;;;;;24.53;48.98;99987.22;4203800;28;20231;-63
2022/09/01 08:14:03;;;;;;;10.43;9.30;;;;;;;25.03;48.01;99983.66;4202111;28;20499;-63
2022/09/01 08:16:06;;;;;;;10.17;9.07;;;;;;;23.92;49.88;100000.47;4204172;28;20230;-62
2022/09/01 08:18:09;;;;;;;12.20;9.00;;;;;;;25.58;47.20;99962.94;4203685;28;20257;-63
2022/09/01 08:20:14;;;;;;;9.17;8.27;;;;;;;26.09;46.51;99998.09;4204541;28;20233;-61
2022/09/01 08:22:16;;;;;;;10.30;8.43;;;;;;;25.20;48.48;100012.75;4198553;28;20277;-63
2022/09/01 08:24:18;;;;;;;9.70;8.70;;;;;;;25.37;48.33;99999.13;4201240;28;20299;-64
2022/09/01 08:26:23;;;;;;;11.03;9.13;;;;;;;24.99;48.67;99995.31;4203151;28;20238;-62
2022/09/01 08:28:25;;;;;;;11.73;8.93;;;;;;;25.75;47.90;99983.81;4203929;28;20226;-63
2022/09/01 08:30:28;;;;;;;14.80;9.30;;;;;;;24.91;49.35;99995.72;4206020;28;20222;-63
2022/09/01 08:32:31;;;;;;;13.50;8.50;;;;;;;25.70;47.76;99997.38;4198688;28;20240;-62
2022/09/01 08:34:33;;;;;;;10.53;9.00;;;;;;;25.55;47.65;99992.56;4206724;28;20382;-63
2022/09/01 08:36:35;;;;;;;11.27;8.63;;;;;;;24.73;48.73;100005.75;4211118;28;20653;-63
2022/09/01 08:38:38;;;;;;;9.57;8.50;;;;;;;24.58;49.03;100006.34;4205407;28;20238;-62
2022/09/01 08:40:48;;;;;;;10.03;9.03;;;;;;;24.49;49.64;100002.34;4204528;28;20230;-63
2022/09/01 08:43:05;;;;;;;9.53;8.53;;;;;;;25.26;47.48;99991.88;4203719;28;20679;-62
2022/09/01 08:45:14;;;;;;;11.53;8.93;;;;;;;24.69;48.55;100005.41;4202816;28;20614;-63
2022/09/01 08:47:18;;;;;;;10.50;9.30;;;;;;;25.75;46.88;99979.19;4206075;28;20230;-63
2022/09/01 08:49:32;;;;;;;9.27;8.33;;;;;;;25.96;46.97;99987.63;4201272;28;20743;-65
2022/09/01 08:51:56;;;;;;;9.43;8.47;;;;;;;24.87;48.74;99998.13;4206442;28;20218;-60
2022/09/01 08:54:13;;;;;;;8.73;7.60;;;;;;;25.45;47.72;99990.53;4204046;28;20226;-63
2022/09/01 08:56:18;;;;;;;9.77;8.77;;;;;;;24.96;48.77;100001.25;4205573;28;20226;-61
2022/09/01 08:58:20;;;;;;;10.17;8.33;;;;;;;25.32;47.61;99986.22;4204348;28;20784;-63
2022/09/01 09:00:26;;;;;;;8.87;7.73;;;;;;;25.30;47.91;99988.41;4201333;28;20227;-66
2022/09/01 09:02:39;;;;;;;9.75;8.52;;;;;;;25.32;47.88;99985.41;4206808;28;20618;-63
2022/09/01 09:05:01;;;;;;;9.38;8.35;;;;;;;25.43;47.66;99992.69;4197903;28;20659;-63
2022/09/01 09:07:05;;;;;;;10.23;7.50;;;;;;;26.15;46.50;99975.28;4202649;28;20231;-63
2022/09/01 09:09:08;;;;;;;9.20;7.10;;;;;;;26.02;47.13;99994.78;4203088;28;20291;-63
2022/09/01 09:11:31;;;;;;;9.00;7.37;;;;;;;26.00;46.78;99996.94;4204498;28;20298;-62
2022/09/01 09:13:41;;;;;;;7.43;6.65;;;;;;;25.19;47.34;100013.84;4200621;28;20238;-62
2022/09/01 09:15:54;;;;;;;10.63;7.32;;;;;;;25.66;47.30;99999.78;4204376;28;20226;-63
2022/09/01 09:18:15;;;;;;;8.05;7.10;;;;;;;25.89;46.58;99993.22;4206151;28;20234;-63
2022/09/01 09:20:36;;;;;;;8.90;6.68;;;;;;;25.24;47.04;100012.00;4201853;28;20336;-63
2022/09/01 09:22:43;;;;;;;8.55;7.47;;;;;;;25.62;46.74;99995.91;4200572;28;20241;-62
2022/09/01 09:25:09;;;;;;;8.30;6.80;;;;;;;25.22;47.38;99997.81;4205019;28;20295;-63
2022/09/01 09:27:23;;;;;;;10.27;7.47;;;;;;;25.63;46.75;99988.56;4205599;28;20230;-62
2022/09/01 09:29:26;;;;;;;8.40;7.18;;;;;;;25.94;47.05;99981.59;4204956;28;20604;-62
2022/09/01 09:31:37;;;;;;;7.53;6.25;;;;;;;26.07;46.04;99983.94;4206433;28;20279;-62
2022/09/01 09:33:39;;;;;;;7.78;6.65;;;;;;;26.24;45.95;99991.19;4201951;28;20322;-62
2022/09/01 09:36:15;;;;;;;7.68;6.65;;;;;;;26.11;45.93;99976.88;4205387;28;20222;-62
2022/09/01 09:38:30;;;;;;;7.82;7.03;;;;;;;25.58;47.23;99983.91;4190191;28;20304;-63
2022/09/01 09:40:33;;;;;;;7.30;6.50;;;;;;;25.58;46.97;99984.72;4182497;28;20234;-63
2022/09/01 09:42:55;;;;;;;8.50;6.63;;;;;;;26.72;45.63;99981.25;4205895;28;20851;-63
2022/09/01 09:44:57;;;;;;;8.13;6.32;;;;;;;26.79;45.08;99986.47;4204609;28;20231;-62
2022/09/01 09:47:00;;;;;;;7.32;5.50;;;;;;;27.23;44.61;99980.81;4198659;28;20279;-63
2022/09/01 09:49:19;;;;;;;6.15;5.53;;;;;;;27.02;44.65;99983.34;4206987;28;20241;-63
2022/09/01 09:51:40;;;;;;;7.63;6.15;;;;;;;25.97;45.91;99986.53;4205728;28;20623;-61
2022/09/01 09:53:42;;;;;;;7.35;5.35;;;;;;;26.70;45.45;99967.88;4206456;28;20283;-63
2022/09/01 09:56:29;;;;;;;7.20;6.38;;;;;;;27.00;44.85;99968.34;4204484;28;20227;-62